首页
METAR-TAF:

METAR-TAF

机场 :

Kimble County Airport

Junction, 得克萨斯州, 美国

纬度: 30-30-39N, 经度: 099-45-59W, 海拔: 527米

当前天气观测

该预报发布于1小时和2分钟前的00:51 UTC
风速3节,风向
温度 13°C
湿度 82%
气压 1012 hPa
能見度: 16.1公里
天空无云

METAR: KJCT 230051Z AUTO 18003KT 10SM CLR 13/10 A2989 RMK AO2 SLP100 T01330100

时间: 19:53 (01:53 UTC)

预报

该预报发布于2小时和30分钟前的23:23 UTC
预报有效从23日的 00点(UTC)到 23日的 24点(UTC)
风速10节,风向西南
能見度: 10公里
散云层高于5000英尺
多云层高于25000英尺
从 23日的 0200点(UTC)
风速4节,风向多变
能見度: 10公里
散云层高于25000英尺
从 23日的 1500点(UTC)
风速8节,风向
能見度: 10公里
散云层高于25000英尺

TAF: KJCT 222323Z 2300/2324 22010KT P6SM SCT050 BKN250 FM230200 VRB04KT P6SM SCT250 FM231500 35008KT P6SM SCT250

超过4000个机场的气象观测和天气预报(METAR&TAF报告)。

可查询的气象台以黄色和红色小点在地图上表示。

将鼠标移到小点上方,可查看气象台名称。

然后点击查看天气观测和预报。

如需切换地图:点击带黑十字的绿色按钮放大地图;点击带横线的绿色按钮缩小地图;或者点击绿色箭头查看邻近地区的地图。


METAR-TAF: